createdAt,value
2018-07-10T00:02:40.176Z,98220.19
2018-07-10T00:05:50.585Z,98213.02
2018-07-10T00:08:45.507Z,98210.05
2018-07-10T00:11:25.963Z,98208.24
2018-07-10T00:13:55.364Z,98205.82
2018-07-10T00:16:24.661Z,98206.80
2018-07-10T00:18:54.668Z,98208.01
2018-07-10T00:21:23.611Z,98208.67
2018-07-10T00:23:52.746Z,98207.66
2018-07-10T00:26:21.897Z,98206.52
2018-07-10T00:28:51.036Z,98207.34
2018-07-10T00:31:20.184Z,98207.70
2018-07-10T00:33:49.329Z,98207.28
2018-07-10T00:36:18.508Z,98211.58
2018-07-10T00:39:01.372Z,98206.03
2018-07-10T00:41:33.418Z,98206.03
2018-07-10T00:44:03.235Z,98191.75
2018-07-10T00:46:35.411Z,98194.38
2018-07-10T00:49:04.594Z,98189.39
2018-07-10T00:51:37.112Z,98194.79
2018-07-10T00:54:06.275Z,98193.48
2018-07-10T00:56:35.419Z,98189.84
2018-07-10T00:59:06.651Z,98189.53
2018-07-10T01:01:36.224Z,98179.03
2018-07-10T01:04:05.150Z,98181.66
2018-07-10T01:06:34.292Z,98180.31
2018-07-10T01:09:03.501Z,98174.24
2018-07-10T01:11:32.430Z,98169.88
2018-07-10T01:14:01.570Z,98174.55
2018-07-10T01:16:38.277Z,98172.22
2018-07-10T01:19:12.941Z,98169.38
2018-07-10T01:21:43.080Z,98169.31
2018-07-10T01:24:12.224Z,98160.80
2018-07-10T01:26:42.328Z,98160.80
2018-07-10T01:29:16.827Z,98161.52
2018-07-10T01:31:46.881Z,98151.27
2018-07-10T01:34:16.268Z,98149.56
2018-07-10T01:36:45.431Z,98151.95
2018-07-10T01:39:14.770Z,98146.06
2018-07-10T01:41:44.137Z,98142.84
2018-07-10T01:44:13.292Z,98140.14
2018-07-10T01:46:42.735Z,98140.83
2018-07-10T01:49:11.890Z,98136.56
2018-07-10T01:51:41.032Z,98130.77
2018-07-10T01:54:10.188Z,98133.60
2018-07-10T01:56:39.384Z,98127.67
2018-07-10T01:59:08.517Z,98129.61
2018-07-10T02:01:37.668Z,98117.87
2018-07-10T02:04:07.979Z,98111.70
2018-07-10T02:06:37.135Z,98116.52
2018-07-10T02:09:06.440Z,98104.63
2018-07-10T02:11:35.580Z,98104.06
2018-07-10T02:14:04.960Z,98101.75
2018-07-10T02:16:34.045Z,98102.87
2018-07-10T02:19:03.211Z,98098.65
2018-07-10T02:21:32.355Z,98093.78
2018-07-10T02:24:01.284Z,98089.88
2018-07-10T02:26:30.424Z,98092.79
2018-07-10T02:28:59.560Z,98091.62
2018-07-10T02:31:28.752Z,98088.53
2018-07-10T02:33:57.896Z,98094.01
2018-07-10T02:36:27.060Z,98093.53
2018-07-10T02:38:59.513Z,98091.16
2018-07-10T02:41:28.654Z,98099.45
2018-07-10T02:44:05.539Z,98092.08
2018-07-10T02:46:36.620Z,98094.77
2018-07-10T02:49:14.888Z,98092.46
2018-07-10T02:51:58.154Z,98086.47
2018-07-10T02:54:31.274Z,98085.67
2018-07-10T02:57:00.437Z,98090.19
2018-07-10T02:59:36.596Z,98093.49
2018-07-10T03:02:07.468Z,98094.42
2018-07-10T03:04:40.141Z,98092.89
2018-07-10T03:07:12.485Z,98095.61
2018-07-10T03:09:41.619Z,98091.12
2018-07-10T03:12:11.423Z,98091.73
2018-07-10T03:14:40.917Z,98085.72
2018-07-10T03:17:10.545Z,98091.45
2018-07-10T03:19:39.727Z,98088.53
2018-07-10T03:22:08.878Z,98089.46
2018-07-10T03:24:38.008Z,98086.42
2018-07-10T03:27:07.164Z,98093.23
2018-07-10T03:29:36.304Z,98095.66
2018-07-10T03:32:05.448Z,98093.81
2018-07-10T03:34:34.604Z,98093.02
2018-07-10T03:37:03.757Z,98099.50
2018-07-10T03:39:32.896Z,98096.28
2018-07-10T03:42:02.033Z,98096.28
2018-07-10T03:44:31.184Z,98089.63
2018-07-10T03:47:00.320Z,98091.54
2018-07-10T03:49:29.792Z,98087.11
2018-07-10T03:51:59.072Z,98081.33
2018-07-10T03:54:28.220Z,98080.78
2018-07-10T03:56:57.384Z,98075.90
2018-07-10T03:59:26.524Z,98059.23
2018-07-10T04:01:56.027Z,98065.83
2018-07-10T04:04:25.256Z,98080.21
2018-07-10T04:06:54.628Z,98073.38
2018-07-10T04:09:23.843Z,98078.50
2018-07-10T04:11:53.080Z,98074.23
2018-07-10T04:14:24.259Z,98078.07
2018-07-10T04:16:53.955Z,98074.76
2018-07-10T04:19:23.940Z,98080.30
2018-07-10T04:21:55.399Z,98080.40
2018-07-10T04:24:24.820Z,98086.52
2018-07-10T04:27:31.099Z,98087.25
2018-07-10T04:31:17.252Z,98096.33
2018-07-10T04:33:49.089Z,98089.09
2018-07-10T04:36:19.232Z,98088.55
2018-07-10T04:38:55.148Z,98087.11
2018-07-10T04:41:28.694Z,98080.97
2018-07-10T04:44:07.897Z,98078.22
2018-07-10T04:46:43.308Z,98080.87
2018-07-10T04:49:56.044Z,98077.17
2018-07-10T04:52:29.124Z,98076.52
2018-07-10T04:55:15.929Z,98071.91
2018-07-10T04:57:56.361Z,98081.84
2018-07-10T05:00:27.432Z,98074.76
2018-07-10T05:02:57.699Z,98075.72
2018-07-10T05:05:28.771Z,98081.23
2018-07-10T05:07:57.903Z,98073.61
2018-07-10T05:10:27.557Z,98073.39
2018-07-10T05:12:57.054Z,98071.91
2018-07-10T05:15:26.189Z,98076.14
2018-07-10T05:17:56.981Z,98071.94
2018-07-10T05:20:26.820Z,98065.71
2018-07-10T05:22:55.977Z,98067.67
2018-07-10T05:25:25.121Z,98061.25
2018-07-10T05:27:54.281Z,98064.05
2018-07-10T05:30:23.415Z,98066.47
2018-07-10T05:32:52.552Z,98066.97
2018-07-10T05:35:21.712Z,98062.94
2018-07-10T05:37:51.148Z,98060.42
2018-07-10T05:40:26.647Z,98059.84
2018-07-10T05:42:55.833Z,98053.56
2018-07-10T05:45:26.139Z,98050.62
2018-07-10T05:48:01.177Z,98062.20
2018-07-10T05:50:36.013Z,98052.64
2018-07-10T05:53:09.477Z,98051.80
2018-07-10T05:55:45.516Z,98060.14
2018-07-10T05:58:14.727Z,98063.91
2018-07-10T06:00:44.023Z,98066.47
2018-07-10T06:03:13.229Z,98065.89
2018-07-10T06:05:42.389Z,98068.59
2018-07-10T06:08:13.873Z,98062.91
2018-07-10T06:10:43.334Z,98056.45
2018-07-10T06:13:12.486Z,98067.34
2018-07-10T06:15:41.624Z,98070.48
2018-07-10T06:18:10.777Z,98064.87
2018-07-10T06:20:42.033Z,98067.59
2018-07-10T06:23:11.656Z,98063.49
2018-07-10T06:25:41.093Z,98075.28
2018-07-10T06:28:15.840Z,98074.13
2018-07-10T06:30:44.985Z,98078.28
2018-07-10T06:33:27.403Z,98076.64
2018-07-10T06:36:21.577Z,98083.66
2018-07-10T06:39:06.388Z,98082.74
2018-07-10T06:41:39.128Z,98091.78
2018-07-10T06:44:08.289Z,98086.70
2018-07-10T06:46:42.928Z,98074.43
2018-07-10T06:49:47.493Z,98081.51
2018-07-10T06:52:19.207Z,98084.77
2018-07-10T06:55:11.455Z,98088.22
2018-07-10T06:57:51.919Z,98085.48
2018-07-10T07:00:20.845Z,98091.73
2018-07-10T07:02:50.076Z,98091.61
2018-07-10T07:05:19.230Z,98088.80
2018-07-10T07:07:48.376Z,98093.72
2018-07-10T07:10:18.005Z,98085.59
2018-07-10T07:12:47.516Z,98095.18
2018-07-10T07:15:20.003Z,98088.96
2018-07-10T07:17:51.642Z,98087.38
2018-07-10T07:20:22.268Z,98087.77
2018-07-10T07:22:51.805Z,98094.29
2018-07-10T07:25:20.944Z,98081.81
2018-07-10T07:27:50.161Z,98078.61
2018-07-10T07:30:19.319Z,98083.86
2018-07-10T07:32:49.266Z,98097.88
2018-07-10T07:35:18.432Z,98091.52
2018-07-10T07:37:47.765Z,98105.99
2018-07-10T07:40:16.932Z,98106.59
2018-07-10T07:42:46.103Z,98101.69
2018-07-10T07:45:15.249Z,98105.48
2018-07-10T07:47:44.795Z,98106.75
2018-07-10T07:50:13.960Z,98111.27
2018-07-10T07:52:43.200Z,98112.45
2018-07-10T07:55:13.379Z,98111.63
2018-07-10T07:57:42.540Z,98109.56
2018-07-10T08:00:11.700Z,98109.80
2018-07-10T08:02:41.107Z,98113.66
2018-07-10T08:05:10.292Z,98115.70
2018-07-10T08:07:39.454Z,98118.34
2018-07-10T08:10:08.595Z,98120.29
2018-07-10T08:12:37.752Z,98114.83
2018-07-10T08:15:06.888Z,98112.05
2018-07-10T08:17:37.149Z,98109.27
2018-07-10T08:20:07.302Z,98116.13
2018-07-10T08:22:36.537Z,98116.55
2018-07-10T08:25:06.528Z,98112.62
2018-07-10T08:27:37.079Z,98103.75
2018-07-10T08:30:06.694Z,98116.88
2018-07-10T08:32:37.724Z,98097.78
2018-07-10T08:35:07.016Z,98100.25
2018-07-10T08:37:36.203Z,98094.25
2018-07-10T08:40:05.367Z,98108.00
2018-07-10T08:42:34.534Z,98108.96
2018-07-10T08:45:05.004Z,98111.14
2018-07-10T08:47:35.046Z,98102.91
2018-07-10T08:50:04.209Z,98100.02
2018-07-10T08:52:33.391Z,98109.72
2018-07-10T08:55:02.528Z,98108.16
2018-07-10T08:57:31.693Z,98113.09
2018-07-10T09:00:01.059Z,98102.39
2018-07-10T09:02:30.229Z,98104.66
2018-07-10T09:04:59.397Z,98101.48
2018-07-10T09:07:28.550Z,98108.08
2018-07-10T09:09:57.717Z,98095.27
2018-07-10T09:15:18.531Z,98105.02
2018-07-10T09:17:47.487Z,98109.36
2018-07-10T09:20:27.815Z,98103.12
2018-07-10T09:22:57.001Z,98115.05
2018-07-10T09:25:26.236Z,98109.80
2018-07-10T09:30:53.351Z,98100.65
2018-07-10T09:33:22.817Z,98095.00
2018-07-10T09:35:52.674Z,98099.67
2018-07-10T09:38:22.166Z,98103.13
2018-07-10T09:40:51.653Z,98102.80
2018-07-10T09:43:21.671Z,98086.83
2018-07-10T09:45:51.565Z,98097.83
2018-07-10T10:29:39.473Z,98059.34
2018-07-10T10:32:08.652Z,98050.44
2018-07-10T10:34:37.829Z,98047.55
2018-07-10T10:37:07.446Z,98052.97
2018-07-10T10:39:36.628Z,98053.88
2018-07-10T10:42:06.071Z,98057.78
2018-07-10T10:44:35.237Z,98062.30
2018-07-10T10:47:04.427Z,98053.41
2018-07-10T10:49:33.596Z,98045.94
2018-07-10T10:52:02.780Z,98043.03
2018-07-10T10:54:31.962Z,98032.75
2018-07-10T10:57:01.139Z,98040.27
2018-07-10T10:59:30.314Z,98031.89
2018-07-10T11:01:59.496Z,98039.36
2018-07-10T11:04:28.648Z,98035.00
2018-07-10T11:06:57.798Z,98037.34
2018-07-10T11:09:27.140Z,98034.97
2018-07-10T11:11:57.300Z,98036.50
2018-07-10T11:14:26.430Z,98036.45
2018-07-10T11:16:55.592Z,98029.27
2018-07-10T11:19:28.115Z,98036.09
2018-07-10T11:22:05.304Z,98039.31
2018-07-10T11:25:09.648Z,98039.00
2018-07-10T11:28:15.018Z,98035.82
2018-07-10T11:30:43.979Z,98030.89
2018-07-10T11:33:13.120Z,98025.24
2018-07-10T11:35:42.266Z,98031.70
2018-07-10T11:38:13.366Z,98030.47
2018-07-10T11:40:44.295Z,98032.23
2018-07-10T11:43:13.720Z,98038.95
2018-07-10T11:45:42.871Z,98028.05
2018-07-10T11:48:11.976Z,98027.80
2018-07-10T11:50:41.125Z,98038.45
2018-07-10T11:53:10.292Z,98034.92
2018-07-10T11:55:39.434Z,98037.20
2018-07-10T11:58:08.984Z,98033.23
2018-07-10T12:00:38.316Z,98039.46
2018-07-10T12:03:07.991Z,98039.41
2018-07-10T12:05:39.122Z,98049.13
2018-07-10T12:08:08.303Z,98039.44
2018-07-10T12:10:38.635Z,98032.91
2018-07-10T12:13:08.048Z,98046.70
2018-07-10T12:15:36.963Z,98037.47
2018-07-10T12:18:06.098Z,98036.56
2018-07-10T12:20:42.454Z,98033.58
2018-07-10T12:23:12.716Z,98035.46
2018-07-10T12:25:43.562Z,98027.67
2018-07-10T12:28:13.512Z,98027.28
2018-07-10T12:30:42.932Z,98021.23
2018-07-10T12:33:12.068Z,98017.28
2018-07-10T12:35:41.352Z,98014.67
2018-07-10T12:38:10.930Z,98016.56
2018-07-10T12:40:40.083Z,98018.31
2018-07-10T12:43:09.014Z,98009.16
2018-07-10T12:45:38.173Z,98009.16
2018-07-10T12:48:07.314Z,98004.63
2018-07-10T12:50:36.469Z,98004.90
2018-07-10T12:53:05.600Z,98012.08
2018-07-10T12:55:36.398Z,98015.17
2018-07-10T12:58:05.668Z,98000.27
2018-07-10T13:00:37.776Z,98006.09
2018-07-10T13:03:09.609Z,98008.86
2018-07-10T13:05:45.281Z,97998.77
2018-07-10T13:08:14.442Z,98014.65
2018-07-10T13:10:43.715Z,98010.69
2018-07-10T13:13:12.895Z,98005.34
2018-07-10T13:15:42.119Z,98018.75
2018-07-10T13:18:11.310Z,98007.20
2018-07-10T13:20:40.566Z,98012.30
2018-07-10T13:23:09.948Z,98014.56
2018-07-10T13:25:39.117Z,98029.16
2018-07-10T13:28:08.293Z,98021.80
2018-07-10T13:30:37.468Z,98029.85
2018-07-10T13:33:06.637Z,98032.97
2018-07-10T13:35:36.355Z,98029.64
2018-07-10T13:38:05.891Z,98027.74
2018-07-10T13:40:37.020Z,98007.39
2018-07-10T13:43:06.260Z,98004.55
2018-07-10T13:45:35.437Z,98010.56
2018-07-10T13:48:04.621Z,98017.86
2018-07-10T13:50:34.698Z,98013.38
2018-07-10T13:53:04.731Z,98001.24
2018-07-10T13:55:33.963Z,97996.27
2018-07-10T13:58:23.925Z,97991.52
2018-07-10T14:00:59.137Z,97976.88
2018-07-10T14:03:28.323Z,97987.75
2018-07-10T14:05:57.467Z,97973.81
2018-07-10T14:08:26.645Z,97980.17
2018-07-10T14:10:55.811Z,97972.45
2018-07-10T14:13:24.966Z,97982.81
2018-07-10T14:15:54.099Z,97982.14
2018-07-10T14:18:24.668Z,97993.56
2018-07-10T14:20:57.043Z,97990.59
2018-07-10T14:23:26.195Z,97985.28
2018-07-10T14:25:55.665Z,97987.56
2018-07-10T14:28:24.928Z,97985.23
2018-07-10T14:30:53.958Z,97986.13
2018-07-10T14:33:23.532Z,97979.72
2018-07-10T14:35:52.458Z,97973.28
2018-07-10T14:38:25.232Z,97973.44
2018-07-10T14:40:54.802Z,97970.88
2018-07-10T14:43:26.307Z,97974.30
2018-07-10T14:46:00.390Z,97973.55
2018-07-10T14:48:33.680Z,97972.91
2018-07-10T14:51:03.272Z,97976.80
2018-07-10T14:53:32.402Z,97977.31
2018-07-10T14:56:01.563Z,97970.88
2018-07-10T14:58:30.706Z,97975.21
2018-07-10T15:00:59.866Z,97973.65
2018-07-10T15:03:29.010Z,97960.34
2018-07-10T15:05:58.181Z,97961.94
2018-07-10T15:08:27.393Z,97962.02
2018-07-10T15:10:56.573Z,97959.06
2018-07-10T15:13:25.737Z,97953.83
2018-07-10T15:16:02.299Z,97954.83
2018-07-10T15:18:37.029Z,97952.98
2018-07-10T15:21:06.052Z,97954.62
2018-07-10T15:23:35.251Z,97957.39
2018-07-10T15:26:04.392Z,97959.44
2018-07-10T15:28:33.673Z,97960.11
2018-07-10T15:31:02.843Z,97952.70
2018-07-10T15:33:32.003Z,97950.36
2018-07-10T15:36:01.188Z,97954.55
2018-07-10T15:38:30.368Z,97953.98
2018-07-10T15:40:59.860Z,97946.94
2018-07-10T15:43:29.032Z,97950.59
2018-07-10T15:45:58.259Z,97952.98
2018-07-10T15:48:27.431Z,97957.83
2018-07-10T15:50:56.693Z,97956.25
2018-07-10T15:53:25.868Z,97941.78
2018-07-10T15:55:55.048Z,97941.59
2018-07-10T15:58:24.244Z,97931.14
2018-07-10T16:00:53.423Z,97929.39
2018-07-10T16:03:22.821Z,97927.29
2018-07-10T16:05:52.329Z,97935.75
2018-07-10T16:08:21.703Z,97938.92
2018-07-10T16:10:57.277Z,97938.09
2018-07-10T16:13:28.099Z,97936.97
2018-07-10T16:15:58.993Z,97936.95
2018-07-10T16:18:29.967Z,97935.16
2018-07-10T16:21:02.933Z,97938.02
2018-07-10T16:23:33.079Z,97943.48
2018-07-10T16:26:12.818Z,97942.78
2018-07-10T16:28:43.172Z,97938.98
2018-07-10T16:31:18.403Z,97944.44
2018-07-10T16:33:47.560Z,97936.86
2018-07-10T16:36:17.824Z,97941.86
2018-07-10T16:38:47.015Z,97953.41
2018-07-10T16:41:23.127Z,97942.23
2018-07-10T16:43:53.573Z,97948.72
2018-07-10T16:46:25.270Z,97944.55
2018-07-10T16:49:07.380Z,97948.45
2018-07-10T16:51:49.035Z,97946.78
2018-07-10T16:54:18.742Z,97946.54
2018-07-10T16:56:47.919Z,97953.14
2018-07-10T16:59:17.095Z,97958.42
2018-07-10T17:01:46.270Z,97957.55
2018-07-10T17:04:15.691Z,97956.48
2018-07-10T17:06:45.416Z,97964.44
2018-07-10T17:09:14.565Z,97951.11
2018-07-10T17:11:43.702Z,97945.30
2018-07-10T17:14:12.864Z,97941.89
2018-07-10T17:16:42.007Z,97952.84
2018-07-10T17:19:11.163Z,97957.70
2018-07-10T17:21:40.341Z,97962.44
2018-07-10T17:24:09.480Z,97964.64
2018-07-10T17:26:39.018Z,97966.53
2018-07-10T17:29:10.880Z,97972.04
2018-07-10T17:31:39.887Z,97975.23
2018-07-10T17:34:09.120Z,97973.02
2018-07-10T17:36:38.260Z,97969.08
2018-07-10T17:39:07.412Z,97965.64
2018-07-10T17:41:37.393Z,97968.82
2018-07-10T17:44:10.270Z,97977.63
2018-07-10T17:46:39.936Z,97974.95
2018-07-10T17:49:09.100Z,97974.62
2018-07-10T17:51:38.230Z,97974.01
2018-07-10T17:54:07.385Z,97976.69
2018-07-10T17:56:36.546Z,97969.83
2018-07-10T17:59:07.491Z,97972.85
2018-07-10T18:01:37.168Z,97967.23
2018-07-10T18:04:06.735Z,97973.99
2018-07-10T18:06:36.428Z,97960.09
2018-07-10T18:09:06.361Z,97964.27
2018-07-10T18:11:35.532Z,97960.41
2018-07-10T18:14:04.480Z,97961.61
2018-07-10T18:16:35.776Z,97960.80
2018-07-10T18:19:05.531Z,97957.98
2018-07-10T18:21:35.917Z,97964.01
2018-07-10T18:24:05.118Z,97957.88
2018-07-10T18:26:34.279Z,97968.28
2018-07-10T18:29:03.598Z,97968.92
2018-07-10T18:31:32.809Z,97968.93
2018-07-10T18:34:01.724Z,97969.30
2018-07-10T18:36:30.897Z,97972.77
2018-07-10T18:39:00.076Z,97972.87
2018-07-10T18:41:29.237Z,97970.88
2018-07-10T18:43:58.383Z,97969.52
2018-07-10T18:46:27.528Z,97974.06
2018-07-10T18:48:56.677Z,97971.54
2018-07-10T18:51:25.973Z,97980.42
2018-07-10T18:53:54.928Z,97975.57
2018-07-10T18:56:24.185Z,97985.44
2018-07-10T18:59:03.974Z,97979.83
2018-07-10T19:02:07.569Z,97990.59
2018-07-10T19:04:51.376Z,97987.14
2018-07-10T19:07:20.742Z,97989.02
2018-07-10T19:09:49.973Z,97984.78
2018-07-10T19:12:19.174Z,97984.78
2018-07-10T19:14:48.358Z,97997.83
2018-07-10T19:17:24.116Z,97999.14
2018-07-10T19:19:55.165Z,97997.58
2018-07-10T19:22:28.607Z,97995.13
2018-07-10T19:25:00.230Z,98001.30
2018-07-10T19:27:32.047Z,97993.44
2018-07-10T19:30:06.038Z,97993.92
2018-07-10T19:32:35.424Z,97995.63
2018-07-10T19:35:04.583Z,98005.34
2018-07-10T19:37:37.160Z,98005.47
2018-07-10T19:40:06.644Z,98004.34
2018-07-10T19:42:38.317Z,97997.91
2018-07-10T19:45:07.525Z,98000.41
2018-07-10T19:47:36.688Z,98004.25
2018-07-10T19:50:16.164Z,98000.89
2018-07-10T19:52:52.345Z,98003.34
2018-07-10T19:55:24.337Z,97998.67
2018-07-10T19:58:31.132Z,98005.99
2018-07-10T20:01:37.770Z,98003.64
2018-07-10T20:04:11.363Z,98005.05
2018-07-10T20:07:08.067Z,98003.94
2018-07-10T20:09:51.891Z,98005.28
2018-07-10T20:12:28.994Z,98006.67
2018-07-10T20:15:11.424Z,98005.84
2018-07-10T20:17:50.740Z,97999.50
2018-07-10T20:20:24.375Z,98002.56
2018-07-10T20:23:08.164Z,98001.78
2018-07-10T20:26:00.235Z,98001.30
2018-07-10T20:29:37.068Z,97999.14
2018-07-10T20:32:07.887Z,98001.84
2018-07-10T20:35:17.264Z,97995.39
2018-07-10T20:37:48.793Z,98000.95
2018-07-10T20:40:32.472Z,98001.42
2018-07-10T20:43:12.091Z,98001.67
2018-07-10T20:45:57.008Z,97996.81
2018-07-10T20:48:59.923Z,97990.80
2018-07-10T20:51:38.911Z,97988.95
2018-07-10T20:54:20.463Z,97984.97
2018-07-10T20:57:25.474Z,97984.51
2018-07-10T21:00:03.427Z,97984.67
2018-07-10T21:04:55.339Z,97987.61
2018-07-10T21:07:29.038Z,97981.48
2018-07-10T21:10:04.720Z,97979.36
2018-07-10T21:12:52.273Z,97976.84
2018-07-10T21:15:34.991Z,97972.89
2018-07-10T21:18:23.184Z,97967.73
2018-07-10T21:21:21.954Z,97961.42
2018-07-10T21:23:57.854Z,97965.70
2018-07-10T21:27:43.936Z,97960.70
2018-07-10T21:30:27.231Z,97954.90
2018-07-10T21:33:00.468Z,97949.53
2018-07-10T21:35:40.021Z,97950.79
2018-07-10T21:38:18.118Z,97952.67
2018-07-10T21:40:59.414Z,97950.97
2018-07-10T21:43:50.790Z,97949.03
2018-07-10T21:46:38.806Z,97950.70
2018-07-10T21:49:38.160Z,97951.97
2018-07-10T21:52:07.343Z,97956.14
2018-07-10T21:54:36.511Z,97950.02
2018-07-10T21:57:05.733Z,97954.52
2018-07-10T21:59:38.520Z,97953.67
2018-07-10T22:02:10.303Z,97957.86
2018-07-10T22:04:40.155Z,97954.50
2018-07-10T22:07:12.779Z,97952.25
2018-07-10T22:09:42.555Z,97951.42
2018-07-10T22:12:15.256Z,97945.84
2018-07-10T22:14:45.348Z,97940.70
2018-07-10T22:17:17.883Z,97946.67
2018-07-10T22:19:49.179Z,97951.34
2018-07-10T22:22:18.984Z,97953.02
2018-07-10T22:24:49.927Z,97951.75
2018-07-10T22:27:19.412Z,97947.27
2018-07-10T22:29:53.985Z,97953.77
2018-07-10T22:32:30.998Z,97954.09
2018-07-10T22:35:00.159Z,97948.20
2018-07-10T22:37:29.334Z,97939.41
2018-07-10T22:39:58.494Z,97942.47
2018-07-10T22:42:27.683Z,97945.27
2018-07-10T22:44:58.753Z,97947.59
2018-07-10T22:47:31.378Z,97950.86
2018-07-10T22:50:07.687Z,97946.56
2018-07-10T22:52:44.885Z,97953.23
2018-07-10T22:55:17.543Z,97953.52
2018-07-10T22:57:47.280Z,97952.38
2018-07-10T23:00:23.529Z,97966.47
2018-07-10T23:02:52.695Z,97970.56
2018-07-10T23:05:21.831Z,97964.86
2018-07-10T23:07:50.736Z,97958.59
2018-07-10T23:10:19.870Z,97964.36
2018-07-10T23:12:49.631Z,97969.58
2018-07-10T23:15:18.559Z,97972.11
2018-07-10T23:17:47.684Z,97970.62
2018-07-10T23:20:17.028Z,97957.06
2018-07-10T23:22:56.648Z,97957.56
2018-07-10T23:25:26.594Z,97946.73
2018-07-10T23:28:01.284Z,97943.42
2018-07-10T23:30:33.982Z,97936.73
2018-07-10T23:33:02.902Z,97932.84
2018-07-10T23:35:33.821Z,97924.69
2018-07-10T23:38:19.337Z,97923.16
2018-07-10T23:40:48.900Z,97923.34
2018-07-10T23:43:19.007Z,97930.81
2018-07-10T23:45:48.591Z,97930.39
2018-07-10T23:48:17.681Z,97934.69
2018-07-10T23:50:46.898Z,97935.67
2018-07-10T23:53:55.744Z,97929.32
2018-07-10T23:56:24.884Z,97930.94
2018-07-10T23:58:54.011Z,97926.92
